sensor_id;sensor_type;location;lat;lon;timestamp;P1;durP1;ratioP1;P2;durP2;ratioP2
81365;SDS011;70822;51.990;22.766;2024-02-21T00:02:38;10.67;;;5.50;;
81365;SDS011;70822;51.990;22.766;2024-02-21T00:17:43;13.23;;;5.30;;
81365;SDS011;70822;51.990;22.766;2024-02-21T00:32:48;8.33;;;4.93;;
81365;SDS011;70822;51.990;22.766;2024-02-21T00:47:53;9.40;;;5.77;;
81365;SDS011;70822;51.990;22.766;2024-02-21T01:02:58;8.70;;;3.97;;
81365;SDS011;70822;51.990;22.766;2024-02-21T01:18:04;4.70;;;1.50;;
81365;SDS011;70822;51.990;22.766;2024-02-21T01:33:09;2.73;;;1.97;;
81365;SDS011;70822;51.990;22.766;2024-02-21T01:48:14;6.57;;;2.40;;
81365;SDS011;70822;51.990;22.766;2024-02-21T02:03:20;4.87;;;1.70;;
81365;SDS011;70822;51.990;22.766;2024-02-21T02:34:31;3.33;;;1.97;;
81365;SDS011;70822;51.990;22.766;2024-02-21T02:49:36;7.13;;;2.37;;
81365;SDS011;70822;51.990;22.766;2024-02-21T03:04:41;4.80;;;2.47;;
81365;SDS011;70822;51.990;22.766;2024-02-21T03:19:46;4.73;;;2.20;;
81365;SDS011;70822;51.990;22.766;2024-02-21T03:34:52;5.07;;;3.20;;
81365;SDS011;70822;51.990;22.766;2024-02-21T03:49:57;9.17;;;3.20;;
81365;SDS011;70822;51.990;22.766;2024-02-21T04:05:04;7.87;;;3.20;;
81365;SDS011;70822;51.990;22.766;2024-02-21T04:20:14;7.17;;;2.90;;
81365;SDS011;70822;51.990;22.766;2024-02-21T04:35:20;3.40;;;2.90;;
81365;SDS011;70822;51.990;22.766;2024-02-21T04:50:25;5.43;;;3.30;;
81365;SDS011;70822;51.990;22.766;2024-02-21T05:05:31;5.80;;;3.23;;
81365;SDS011;70822;51.990;22.766;2024-02-21T05:20:36;9.77;;;5.87;;
81365;SDS011;70822;51.990;22.766;2024-02-21T05:35:41;8.60;;;4.60;;
81365;SDS011;70822;51.990;22.766;2024-02-21T05:50:46;10.30;;;7.60;;
81365;SDS011;70822;51.990;22.766;2024-02-21T06:05:51;13.97;;;5.47;;
81365;SDS011;70822;51.990;22.766;2024-02-21T06:20:56;8.97;;;4.20;;
81365;SDS011;70822;51.990;22.766;2024-02-21T06:36:01;4.73;;;3.50;;
81365;SDS011;70822;51.990;22.766;2024-02-21T06:51:06;6.90;;;3.27;;
81365;SDS011;70822;51.990;22.766;2024-02-21T07:06:11;10.00;;;3.93;;
81365;SDS011;70822;51.990;22.766;2024-02-21T07:21:16;11.37;;;5.40;;
81365;SDS011;70822;51.990;22.766;2024-02-21T07:36:27;8.43;;;5.10;;
81365;SDS011;70822;51.990;22.766;2024-02-21T07:51:34;7.63;;;4.23;;
81365;SDS011;70822;51.990;22.766;2024-02-21T08:06:40;5.67;;;2.53;;
81365;SDS011;70822;51.990;22.766;2024-02-21T08:21:45;15.00;;;5.00;;
81365;SDS011;70822;51.990;22.766;2024-02-21T08:36:52;9.10;;;4.40;;
81365;SDS011;70822;51.990;22.766;2024-02-21T08:51:58;10.57;;;5.07;;
81365;SDS011;70822;51.990;22.766;2024-02-21T09:07:05;7.43;;;4.00;;
81365;SDS011;70822;51.990;22.766;2024-02-21T09:22:11;7.07;;;3.07;;
81365;SDS011;70822;51.990;22.766;2024-02-21T09:37:18;11.27;;;3.77;;
81365;SDS011;70822;51.990;22.766;2024-02-21T09:52:23;7.80;;;3.27;;
81365;SDS011;70822;51.990;22.766;2024-02-21T10:07:30;9.70;;;3.90;;
81365;SDS011;70822;51.990;22.766;2024-02-21T10:22:37;11.10;;;6.50;;
81365;SDS011;70822;51.990;22.766;2024-02-21T10:37:44;11.23;;;5.90;;
81365;SDS011;70822;51.990;22.766;2024-02-21T10:52:51;12.90;;;5.67;;
81365;SDS011;70822;51.990;22.766;2024-02-21T11:08:13;15.87;;;6.73;;
81365;SDS011;70822;51.990;22.766;2024-02-21T11:23:25;14.80;;;6.70;;
81365;SDS011;70822;51.990;22.766;2024-02-21T11:38:30;11.63;;;6.00;;
81365;SDS011;70822;51.990;22.766;2024-02-21T11:53:41;14.80;;;7.30;;
81365;SDS011;70822;51.990;22.766;2024-02-21T12:08:49;15.80;;;6.40;;
81365;SDS011;70822;51.990;22.766;2024-02-21T12:23:54;8.70;;;5.50;;
81365;SDS011;70822;51.990;22.766;2024-02-21T12:38:59;14.90;;;6.40;;
81365;SDS011;70822;51.990;22.766;2024-02-21T12:54:07;24.23;;;8.43;;
81365;SDS011;70822;51.990;22.766;2024-02-21T13:09:17;21.57;;;10.93;;
81365;SDS011;70822;51.990;22.766;2024-02-21T13:24:22;23.63;;;11.47;;
81365;SDS011;70822;51.990;22.766;2024-02-21T13:39:28;14.37;;;7.63;;
81365;SDS011;70822;51.990;22.766;2024-02-21T13:54:41;14.67;;;6.87;;
81365;SDS011;70822;51.990;22.766;2024-02-21T14:09:47;17.07;;;7.93;;
81365;SDS011;70822;51.990;22.766;2024-02-21T14:24:53;13.57;;;5.53;;
81365;SDS011;70822;51.990;22.766;2024-02-21T14:39:57;12.43;;;5.73;;
81365;SDS011;70822;51.990;22.766;2024-02-21T14:55:05;14.47;;;6.47;;
81365;SDS011;70822;51.990;22.766;2024-02-21T15:10:11;24.17;;;11.40;;
81365;SDS011;70822;51.990;22.766;2024-02-21T15:25:16;27.07;;;11.67;;
81365;SDS011;70822;51.990;22.766;2024-02-21T15:40:21;28.00;;;11.53;;
81365;SDS011;70822;51.990;22.766;2024-02-21T15:55:26;41.93;;;16.57;;
81365;SDS011;70822;51.990;22.766;2024-02-21T16:10:32;44.67;;;22.60;;
81365;SDS011;70822;51.990;22.766;2024-02-21T16:25:37;56.67;;;26.03;;
81365;SDS011;70822;51.990;22.766;2024-02-21T16:40:43;18.10;;;12.60;;
81365;SDS011;70822;51.990;22.766;2024-02-21T16:55:48;27.43;;;13.70;;
81365;SDS011;70822;51.990;22.766;2024-02-21T17:10:53;27.07;;;13.47;;
81365;SDS011;70822;51.990;22.766;2024-02-21T17:26:00;31.10;;;17.87;;
81365;SDS011;70822;51.990;22.766;2024-02-21T17:41:05;29.90;;;15.40;;
81365;SDS011;70822;51.990;22.766;2024-02-21T17:56:11;21.63;;;13.93;;
81365;SDS011;70822;51.990;22.766;2024-02-21T18:11:20;22.77;;;12.43;;
81365;SDS011;70822;51.990;22.766;2024-02-21T18:26:26;19.00;;;10.43;;
81365;SDS011;70822;51.990;22.766;2024-02-21T18:41:33;30.50;;;14.70;;
81365;SDS011;70822;51.990;22.766;2024-02-21T18:56:40;26.10;;;13.17;;
81365;SDS011;70822;51.990;22.766;2024-02-21T19:11:49;23.00;;;10.30;;
81365;SDS011;70822;51.990;22.766;2024-02-21T19:26:54;19.60;;;9.60;;
81365;SDS011;70822;51.990;22.766;2024-02-21T19:42:01;18.80;;;11.03;;
81365;SDS011;70822;51.990;22.766;2024-02-21T19:57:07;17.57;;;9.10;;
81365;SDS011;70822;51.990;22.766;2024-02-21T20:12:12;18.47;;;9.73;;
81365;SDS011;70822;51.990;22.766;2024-02-21T20:27:19;27.67;;;11.77;;
81365;SDS011;70822;51.990;22.766;2024-02-21T20:42:24;39.47;;;17.83;;
81365;SDS011;70822;51.990;22.766;2024-02-21T20:57:29;15.90;;;9.07;;
81365;SDS011;70822;51.990;22.766;2024-02-21T21:12:34;19.37;;;9.73;;
81365;SDS011;70822;51.990;22.766;2024-02-21T21:27:39;18.10;;;8.60;;
81365;SDS011;70822;51.990;22.766;2024-02-21T21:42:47;17.73;;;10.33;;
81365;SDS011;70822;51.990;22.766;2024-02-21T21:57:52;19.97;;;9.70;;
81365;SDS011;70822;51.990;22.766;2024-02-21T22:12:57;22.53;;;9.77;;
81365;SDS011;70822;51.990;22.766;2024-02-21T22:28:02;20.30;;;8.70;;
81365;SDS011;70822;51.990;22.766;2024-02-21T22:43:09;19.33;;;9.33;;
81365;SDS011;70822;51.990;22.766;2024-02-21T22:58:14;19.60;;;10.33;;
81365;SDS011;70822;51.990;22.766;2024-02-21T23:13:19;22.10;;;10.97;;
81365;SDS011;70822;51.990;22.766;2024-02-21T23:28:24;31.17;;;15.00;;
81365;SDS011;70822;51.990;22.766;2024-02-21T23:43:29;24.53;;;14.73;;
81365;SDS011;70822;51.990;22.766;2024-02-21T23:58:37;24.80;;;14.27;;
